Terminal Aerodrome Forecast
Issued by NWS

Home | Current Version | Previous Version | Graphics & Text | Print | Product List | Glossary On
Versions: 1 2 3 4 5 6 7 8 9 10 11 12 13 14 15 16 17 18 19 20 21 22 23 24
000
FTUS43 KGRB 280520
TAFCWA
TAF
KCWA 280520Z 2806/2906 14004KT P6SM SCT070
     FM281500 16008KT P6SM SCT045 BKN090
     FM281800 16008KT P6SM VCSH SCT040 BKN080
      TEMPO 2822/2902 -SHRA BKN040
     FM290200 VRB03KT P6SM BKN040 BKN080=

USA.gov is the U.S. government's official web portal to all federal, state and local government web resources and services.